Time;durP1;ratioP1;P1;durP2;ratioP2;P2;SDS_P1;SDS_P2;PMS_P1;PMS_P2;Temp;Humidity;BMP_temperature;BMP_pressure;BME280_temperature;BME280_humidity;BME280_pressure;Samples;Min_cycle;Max_cycle;Signal;HPM_P1;HPM_P2
2023/02/03 00:01:07;;;;;;;3.73;2.20;;;4.10;99.90;;;;;;6245801;23;20413;-82
2023/02/03 00:03:34;;;;;;;4.30;2.83;;;5.60;99.90;;;;;;6245261;23;20922;-85
2023/02/03 00:06:03;;;;;;;3.20;1.80;;;4.20;99.90;;;;;;6245985;23;20420;-80
2023/02/03 00:08:32;;;;;;;3.53;2.13;;;4.20;99.90;;;;;;6245634;23;20446;-87
2023/02/03 00:11:03;;;;;;;4.90;1.93;;;4.20;99.90;;;;;;6249079;23;20418;-88
2023/02/03 00:13:31;;;;;;;1.97;1.80;;;4.20;99.90;;;;;;6246929;23;21004;-89
2023/02/03 00:16:00;;;;;;;3.40;2.60;;;4.40;99.90;;;;;;6248160;23;20446;-86
2023/02/03 00:18:27;;;;;;;4.00;1.90;;;4.40;99.90;;;;;;6247057;23;20414;-85
2023/02/03 00:20:54;;;;;;;9.90;2.50;;;4.40;99.90;;;;;;6256254;23;20409;-84
2023/02/03 00:23:24;;;;;;;2.53;2.23;;;4.20;99.90;;;;;;6260529;23;20941;-85
2023/02/03 00:25:55;;;;;;;3.50;2.47;;;4.40;99.90;;;;;;6260723;23;20410;-82
2023/02/03 00:28:22;;;;;;;2.80;1.70;;;4.50;99.90;;;;;;6266676;23;20402;-84
2023/02/03 00:30:52;;;;;;;3.53;1.77;;;4.20;99.90;;;;;;6267375;23;20406;-88
2023/02/03 00:33:20;;;;;;;3.23;2.00;;;4.10;99.90;;;;;;6265955;23;20482;-84
2023/02/03 00:35:48;;;;;;;2.80;1.80;;;4.80;99.90;;;;;;6263947;23;20438;-82
2023/02/03 00:38:17;;;;;;;4.53;1.57;;;4.30;99.90;;;;;;6260352;23;20461;-80
2023/02/03 00:41:01;;;;;;;5.00;2.10;;;4.40;99.90;;;;;;6251850;23;20402;-86
2023/02/03 00:43:29;;;;;;;3.97;2.63;;;4.50;99.90;;;;;;6251728;23;20497;-85
2023/02/03 00:45:56;;;;;;;2.40;1.87;;;4.40;99.90;;;;;;6250628;23;20412;-84
2023/02/03 00:48:23;;;;;;;3.70;1.67;;;4.50;99.90;;;;;;6248874;23;20400;-82
2023/02/03 00:50:52;;;;;;;3.50;2.20;;;4.30;99.90;;;;;;6250869;23;20486;-83
2023/02/03 00:53:19;;;;;;;2.00;1.50;;;4.30;99.90;;;;;;6247816;23;20433;-84
2023/02/03 00:55:54;;;;;;;4.60;2.30;;;4.10;99.90;;;;;;6247485;23;20501;-87
2023/02/03 01:01:14;;;;;;;3.13;2.17;;;4.40;99.90;;;;;;6261790;23;20398;-90
2023/02/03 01:03:44;;;;;;;4.83;2.00;;;4.40;99.90;;;;;;6253599;23;20911;-89
2023/02/03 01:06:13;;;;;;;2.17;1.97;;;4.40;99.90;;;;;;6245646;23;20406;-84
2023/02/03 01:08:40;;;;;;;3.20;1.63;;;4.40;99.90;;;;;;6244940;23;20529;-83
2023/02/03 01:11:11;;;;;;;3.43;1.57;;;4.30;99.90;;;;;;6247974;23;20414;-88
2023/02/03 01:13:44;;;;;;;5.20;2.60;;;4.50;99.90;;;;;;6255276;23;20418;-88
2023/02/03 01:16:13;;;;;;;2.63;1.43;;;4.50;99.90;;;;;;6256193;23;20519;-82
2023/02/03 01:18:41;;;;;;;3.40;1.67;;;4.40;99.90;;;;;;6246477;23;20416;-91
2023/02/03 01:21:10;;;;;;;2.00;1.80;;;4.30;99.90;;;;;;6247933;23;20395;-86
2023/02/03 01:23:47;;;;;;;3.87;2.10;;;4.30;99.90;;;;;;6251608;23;20415;-83
2023/02/03 01:26:18;;;;;;;2.80;1.60;;;4.30;99.90;;;;;;6267003;23;20399;-82
2023/02/03 01:28:50;;;;;;;5.93;2.13;;;4.40;99.90;;;;;;6256718;23;20486;-85
2023/02/03 01:31:19;;;;;;;2.33;1.60;;;4.60;99.90;;;;;;6252279;23;20750;-88
2023/02/03 01:33:47;;;;;;;3.20;2.90;;;4.50;99.90;;;;;;6258011;23;20939;-84
2023/02/03 01:36:19;;;;;;;2.73;2.53;;;4.40;99.90;;;;;;6261126;23;20440;-81
2023/02/03 01:38:47;;;;;;;3.30;1.80;;;4.30;99.90;;;;;;6256399;22;20511;-85
2023/02/03 01:41:18;;;;;;;1.60;1.50;;;4.80;99.90;;;;;;6260908;23;20406;-84
2023/02/03 01:43:47;;;;;;;2.17;1.97;;;4.50;99.90;;;;;;6263293;23;20379;-82
2023/02/03 01:46:28;;;;;;;5.27;1.87;;;4.30;99.90;;;;;;6250410;23;20405;-85
2023/02/03 01:49:13;;;;;;;1.67;1.57;;;4.40;99.90;;;;;;6248593;23;20379;-85
2023/02/03 01:51:43;;;;;;;3.93;2.13;;;4.30;99.90;;;;;;6248826;23;20420;-81
2023/02/03 01:54:13;;;;;;;2.93;2.43;;;4.40;99.90;;;;;;6244359;23;20388;-81
2023/02/03 01:56:45;;;;;;;2.80;1.77;;;4.40;99.90;;;;;;6244874;23;20529;-84
2023/02/03 01:59:13;;;;;;;1.70;1.47;;;4.30;99.90;;;;;;6247055;23;20455;-86
2023/02/03 02:01:40;;;;;;;5.10;1.50;;;4.50;99.90;;;;;;6248770;23;20414;-86
2023/02/03 02:04:11;;;;;;;2.23;1.87;;;4.50;99.90;;;;;;6244139;23;20406;-87
2023/02/03 02:06:47;;;;;;;2.53;1.87;;;4.50;99.90;;;;;;6246460;23;20420;-88
2023/02/03 02:09:15;;;;;;;3.67;2.30;;;4.40;99.90;;;;;;6245597;23;20418;-86
2023/02/03 02:11:44;;;;;;;1.90;1.63;;;4.60;99.90;;;;;;6252849;23;20406;-84
2023/02/03 02:14:12;;;;;;;4.20;2.40;;;4.50;99.90;;;;;;6246066;23;20414;-83
2023/02/03 02:16:50;;;;;;;7.50;1.73;;;4.40;99.90;;;;;;6259284;23;20442;-82
2023/02/03 02:19:45;;;;;;;3.20;1.50;;;4.50;99.90;;;;;;6253353;23;20410;-88
2023/02/03 02:22:18;;;;;;;2.20;1.70;;;4.40;99.90;;;;;;6255324;23;20399;-85
2023/02/03 02:25:11;;;;;;;2.57;1.80;;;5.20;99.90;;;;;;6256649;22;20919;-80
2023/02/03 02:28:16;;;;;;;6.17;2.67;;;5.60;99.90;;;;;;6254383;23;20723;-84
2023/02/03 02:31:10;;;;;;;1.70;1.60;;;4.40;99.90;;;;;;6256387;23;20406;-87
2023/02/03 02:33:46;;;;;;;9.70;1.83;;;4.20;99.90;;;;;;6261685;23;20421;-89
2023/02/03 02:36:26;;;;;;;2.20;2.00;;;4.70;99.90;;;;;;6260022;23;20475;-86
2023/02/03 02:41:46;;;;;;;2.13;1.93;;;4.40;99.90;;;;;;6255252;23;20405;-81
2023/02/03 02:44:19;;;;;;;6.47;1.80;;;5.20;99.90;;;;;;6244843;23;20383;-83
2023/02/03 02:46:49;;;;;;;3.77;2.03;;;5.10;99.90;;;;;;6244358;23;20450;-83
2023/02/03 02:49:22;;;;;;;3.93;1.73;;;4.40;99.90;;;;;;6244417;23;20387;-85
2023/02/03 02:51:50;;;;;;;1.90;1.70;;;4.50;99.90;;;;;;6244131;23;20409;-79
2023/02/03 02:54:20;;;;;;;2.80;1.70;;;4.50;99.90;;;;;;6244836;23;20470;-82
2023/02/03 02:56:51;;;;;;;6.00;2.20;;;4.50;99.90;;;;;;6244068;22;20449;-85
2023/02/03 02:59:18;;;;;;;4.07;1.70;;;4.50;99.90;;;;;;6253048;23;20444;-83
2023/02/03 03:04:59;;;;;;;2.53;2.30;;;4.70;99.90;;;;;;6256529;23;20390;-84
2023/02/03 03:07:33;;;;;;;2.77;1.80;;;4.90;99.90;;;;;;6258821;23;20445;-88
2023/02/03 03:10:05;;;;;;;4.23;2.43;;;4.60;99.90;;;;;;6253412;23;20440;-86
2023/02/03 03:12:37;;;;;;;3.97;1.77;;;5.00;99.90;;;;;;6260673;23;20785;-85
2023/02/03 03:15:07;;;;;;;3.23;2.07;;;4.60;99.90;;;;;;6266056;23;20420;-85
2023/02/03 03:17:40;;;;;;;3.10;1.50;;;4.50;99.90;;;;;;6250817;23;20437;-80
2023/02/03 03:20:11;;;;;;;2.47;1.30;;;4.60;99.90;;;;;;6249835;23;20394;-87
2023/02/03 03:22:45;;;;;;;4.30;1.93;;;4.60;99.90;;;;;;6253787;23;20421;-83
2023/02/03 03:25:16;;;;;;;2.47;1.77;;;4.60;99.90;;;;;;6249280;23;20378;-82
2023/02/03 03:27:49;;;;;;;3.03;1.50;;;4.50;99.90;;;;;;6258997;23;20392;-86
2023/02/03 03:30:23;;;;;;;2.47;1.63;;;4.60;99.90;;;;;;6259828;22;20413;-89
2023/02/03 03:32:58;;;;;;;1.73;1.20;;;4.60;99.90;;;;;;6263392;23;20433;-87
2023/02/03 03:35:32;;;;;;;2.73;1.70;;;4.60;99.90;;;;;;6265965;23;20409;-83
2023/02/03 03:38:08;;;;;;;3.07;2.07;;;4.60;99.90;;;;;;6263513;23;20444;-82
2023/02/03 03:40:39;;;;;;;1.40;1.30;;;4.60;99.90;;;;;;6265129;22;20394;-81
2023/02/03 03:43:13;;;;;;;3.50;1.87;;;4.60;99.90;;;;;;6261653;23;20414;-85
2023/02/03 03:45:45;;;;;;;3.00;1.83;;;4.60;99.90;;;;;;6260757;23;20445;-88
2023/02/03 03:48:19;;;;;;;2.40;1.83;;;4.60;99.90;;;;;;6263061;23;20387;-78
2023/02/03 03:50:51;;;;;;;2.17;1.57;;;5.10;99.90;;;;;;6245615;23;20507;-84
2023/02/03 03:53:22;;;;;;;1.33;1.23;;;4.50;99.90;;;;;;6246093;23;20947;-84
2023/02/03 03:55:53;;;;;;;2.90;1.50;;;4.60;99.90;;;;;;6251998;23;20438;-89
2023/02/03 03:58:36;;;;;;;1.90;1.70;;;4.60;99.90;;;;;;6264896;23;20468;-87
2023/02/03 04:01:06;;;;;;;2.10;1.70;;;4.70;99.90;;;;;;6251401;23;20398;-81
2023/02/03 04:03:38;;;;;;;3.40;1.43;;;4.80;99.90;;;;;;6248654;23;20425;-83
2023/02/03 04:06:05;;;;;;;2.93;1.57;;;4.30;99.90;;;;;;6254040;23;20477;-83
2023/02/03 04:08:34;;;;;;;4.30;1.80;;;4.80;99.90;;;;;;6245285;23;20436;-82
2023/02/03 04:11:00;;;;;;;1.50;1.40;;;4.60;99.90;;;;;;6246042;23;20413;-87
2023/02/03 04:13:28;;;;;;;1.83;1.50;;;5.50;99.90;;;;;;6252453;23;20770;-87
2023/02/03 04:15:55;;;;;;;2.70;1.60;;;4.70;99.90;;;;;;6248106;23;20418;-83
2023/02/03 04:18:22;;;;;;;1.70;1.30;;;4.70;99.90;;;;;;6245026;23;20541;-79
2023/02/03 04:20:49;;;;;;;2.50;1.40;;;4.50;99.90;;;;;;6245982;23;20414;-82
2023/02/03 04:23:16;;;;;;;2.20;1.40;;;5.50;99.90;;;;;;6246902;23;20399;-81
2023/02/03 04:25:44;;;;;;;2.40;1.90;;;4.50;99.90;;;;;;6255295;23;20493;-82
2023/02/03 04:28:20;;;;;;;4.97;1.53;;;4.40;99.90;;;;;;6250477;23;20415;-82
2023/02/03 04:30:48;;;;;;;2.30;1.37;;;4.40;99.90;;;;;;6264468;23;20470;-82
2023/02/03 04:33:15;;;;;;;1.53;1.43;;;4.80;99.90;;;;;;6250514;23;20402;-86
2023/02/03 04:35:45;;;;;;;2.27;1.60;;;4.60;99.90;;;;;;6247386;23;20429;-88
2023/02/03 04:38:12;;;;;;;2.90;1.60;;;4.60;99.90;;;;;;6236472;23;20434;-83
2023/02/03 04:40:39;;;;;;;1.33;1.23;;;4.20;99.90;;;;;;6257946;23;20414;-80
2023/02/03 04:43:10;;;;;;;1.83;1.10;;;4.50;99.90;;;;;;6248537;23;20395;-87
2023/02/03 04:45:37;;;;;;;2.40;1.97;;;4.70;99.90;;;;;;6253533;23;20413;-86
2023/02/03 04:48:04;;;;;;;2.70;1.90;;;4.60;99.90;;;;;;6249407;23;20398;-84
2023/02/03 04:50:31;;;;;;;3.90;1.60;;;4.50;99.90;;;;;;6246873;23;20403;-85
2023/02/03 04:52:59;;;;;;;1.90;1.50;;;4.70;99.90;;;;;;6247131;23;20418;-85
2023/02/03 04:55:26;;;;;;;2.20;1.70;;;4.50;99.90;;;;;;6245889;23;20892;-86
2023/02/03 04:57:55;;;;;;;2.63;1.30;;;4.50;99.90;;;;;;6249062;23;20462;-90
2023/02/03 05:00:23;;;;;;;1.57;1.27;;;4.30;99.90;;;;;;6268983;22;20437;-87
2023/02/03 05:02:50;;;;;;;1.27;1.10;;;4.30;99.90;;;;;;6265494;22;20473;-88
2023/02/03 05:05:17;;;;;;;3.30;2.17;;;4.30;99.90;;;;;;6268622;23;20869;-89
2023/02/03 05:07:44;;;;;;;3.10;1.30;;;4.30;99.90;;;;;;6273510;22;20490;-85
2023/02/03 05:10:11;;;;;;;3.43;1.80;;;4.30;99.90;;;;;;6265695;22;20413;-86
2023/02/03 05:12:38;;;;;;;2.20;1.30;;;4.30;99.90;;;;;;6268870;23;20429;-89
2023/02/03 05:15:06;;;;;;;3.13;1.50;;;4.30;99.90;;;;;;6273507;22;20394;-84
2023/02/03 05:20:06;;;;;;;4.90;1.60;;;4.30;99.90;;;;;;6209886;23;20439;-82
2023/02/03 05:22:34;;;;;;;2.63;2.30;;;4.30;99.90;;;;;;6207669;23;20396;-89
2023/02/03 05:25:01;;;;;;;1.40;1.30;;;4.00;99.90;;;;;;6203003;23;20784;-89
2023/02/03 05:27:28;;;;;;;2.23;1.43;;;4.80;99.90;;;;;;6202878;23;20428;-88
2023/02/03 05:29:55;;;;;;;1.97;1.60;;;4.50;99.90;;;;;;6193084;23;20432;-86
2023/02/03 05:32:22;;;;;;;1.60;1.50;;;4.40;99.90;;;;;;6195202;23;20404;-88
2023/02/03 05:34:49;;;;;;;3.00;1.90;;;4.80;99.90;;;;;;6200443;23;20465;-89
2023/02/03 05:37:17;;;;;;;4.20;1.80;;;4.30;99.90;;;;;;6190039;23;20904;-82
2023/02/03 05:39:43;;;;;;;2.13;1.60;;;5.40;99.90;;;;;;6191657;23;20408;-83
2023/02/03 05:42:09;;;;;;;5.07;1.53;;;4.30;99.90;;;;;;6196327;23;20412;-86
2023/02/03 05:44:36;;;;;;;2.30;1.60;;;4.30;99.90;;;;;;6197503;23;20942;-88
2023/02/03 05:47:03;;;;;;;3.70;1.73;;;4.30;99.90;;;;;;6197153;22;20300;-84
2023/02/03 05:49:30;;;;;;;2.33;1.30;;;6.60;99.90;;;;;;6191788;23;20491;-88
2023/02/03 05:51:56;;;;;;;4.83;1.23;;;4.10;99.90;;;;;;6198555;23;20442;-85
2023/02/03 05:54:25;;;;;;;2.53;1.70;;;4.80;99.90;;;;;;6191675;23;20411;-84
2023/02/03 05:56:52;;;;;;;3.80;1.53;;;4.90;99.90;;;;;;6186808;23;20415;-88
2023/02/03 05:59:19;;;;;;;2.40;1.40;;;4.30;99.90;;;;;;6202774;23;20486;-90
2023/02/03 06:01:46;;;;;;;1.67;1.20;;;4.00;99.90;;;;;;6197671;23;20412;-86
2023/02/03 06:04:13;;;;;;;5.13;1.83;;;4.80;99.90;;;;;;6185662;23;20470;-83
2023/02/03 06:06:39;;;;;;;2.87;1.60;;;4.50;99.90;;;;;;6193425;23;20405;-86
2023/02/03 06:09:08;;;;;;;2.10;1.50;;;4.30;99.90;;;;;;6187222;23;20404;-86
2023/02/03 06:11:36;;;;;;;2.13;1.30;;;4.30;99.90;;;;;;6186554;23;20411;-85
2023/02/03 06:14:03;;;;;;;2.60;1.53;;;4.20;99.90;;;;;;6195476;23;20912;-83
2023/02/03 06:16:30;;;;;;;5.60;1.67;;;4.30;99.90;;;;;;6200251;23;20467;-86
2023/02/03 06:18:59;;;;;;;7.77;1.70;;;4.30;99.90;;;;;;6202344;23;20487;-81
2023/02/03 06:21:26;;;;;;;2.43;1.50;;;4.30;99.90;;;;;;6210539;23;20410;-87
2023/02/03 06:23:53;;;;;;;3.77;1.57;;;4.30;99.90;;;;;;6211514;23;20408;-86
2023/02/03 06:26:20;;;;;;;2.97;1.70;;;4.30;99.90;;;;;;6210587;23;20431;-88
2023/02/03 06:28:48;;;;;;;1.80;1.30;;;4.40;99.90;;;;;;6193679;23;20483;-86
2023/02/03 06:31:15;;;;;;;2.20;1.30;;;4.40;99.90;;;;;;6186374;23;20420;-79
2023/02/03 06:33:42;;;;;;;1.57;1.17;;;4.30;99.90;;;;;;6187463;23;21233;-87
2023/02/03 06:36:09;;;;;;;2.37;1.80;;;4.30;99.90;;;;;;6201723;23;20415;-83
2023/02/03 06:38:36;;;;;;;10.53;1.77;;;4.30;99.90;;;;;;6190576;23;20440;-81
2023/02/03 06:41:03;;;;;;;2.27;1.40;;;4.30;99.90;;;;;;6184739;23;20412;-76
2023/02/03 06:43:29;;;;;;;4.03;1.20;;;4.30;99.90;;;;;;6179574;23;20412;-75
2023/02/03 06:45:58;;;;;;;1.90;1.10;;;4.30;99.90;;;;;;6180796;23;20411;-77
2023/02/03 06:48:24;;;;;;;3.90;1.40;;;4.30;99.90;;;;;;6210860;23;20408;-75
2023/02/03 06:50:51;;;;;;;2.83;1.70;;;4.30;99.90;;;;;;6210476;23;20735;-78
2023/02/03 06:53:18;;;;;;;1.93;1.03;;;4.30;99.90;;;;;;6210853;23;20419;-77
2023/02/03 06:55:46;;;;;;;1.50;1.40;;;4.30;99.90;;;;;;6210355;23;20419;-76
2023/02/03 06:58:13;;;;;;;2.10;1.30;;;4.30;99.90;;;;;;6209267;23;21211;-77
2023/02/03 07:00:40;;;;;;;1.97;1.73;;;4.40;99.90;;;;;;6210613;23;20514;-77
2023/02/03 07:03:08;;;;;;;2.50;1.40;;;4.30;99.90;;;;;;6210347;23;20414;-77
2023/02/03 07:05:35;;;;;;;1.03;0.93;;;4.30;99.90;;;;;;6217524;23;20403;-87
2023/02/03 07:08:02;;;;;;;1.90;1.50;;;4.30;99.90;;;;;;6213752;23;20407;-80
2023/02/03 07:10:29;;;;;;;1.63;1.27;;;4.30;99.90;;;;;;6214481;23;20421;-79
2023/02/03 07:13:01;;;;;;;1.67;1.57;;;4.40;99.90;;;;;;6222087;23;20396;-88
2023/02/03 07:15:28;;;;;;;1.73;1.60;;;4.40;99.90;;;;;;6221991;23;20375;-85
2023/02/03 07:17:54;;;;;;;1.40;1.13;;;4.40;99.90;;;;;;6223945;23;20529;-88
2023/02/03 07:20:24;;;;;;;2.37;1.40;;;4.40;99.90;;;;;;6231089;23;20386;-88
2023/02/03 07:22:55;;;;;;;2.47;1.50;;;4.40;99.90;;;;;;6235395;23;20413;-89
2023/02/03 07:25:23;;;;;;;6.30;2.10;;;4.50;99.90;;;;;;6259137;22;20522;-88
2023/02/03 07:27:49;;;;;;;1.80;1.20;;;5.00;99.90;;;;;;6261296;22;20412;-87
2023/02/03 07:30:17;;;;;;;1.63;1.37;;;4.50;99.90;;;;;;6261755;23;20426;-88
2023/02/03 07:32:47;;;;;;;3.87;1.80;;;4.50;99.90;;;;;;6273823;22;20453;-88
2023/02/03 07:35:14;;;;;;;5.23;1.77;;;4.60;99.90;;;;;;6272975;22;20378;-83
2023/02/03 07:37:43;;;;;;;1.30;1.13;;;4.60;99.90;;;;;;6271786;22;20420;-88
2023/02/03 07:40:10;;;;;;;3.80;1.60;;;4.50;99.90;;;;;;6265219;22;20473;-87
2023/02/03 07:42:40;;;;;;;2.90;1.33;;;4.60;99.90;;;;;;6242610;23;20462;-79
2023/02/03 07:45:08;;;;;;;4.80;1.37;;;4.60;99.90;;;;;;6245025;23;20895;-80
2023/02/03 07:47:35;;;;;;;1.50;1.20;;;4.60;99.90;;;;;;6236737;23;20399;-79
2023/02/03 07:50:02;;;;;;;1.40;1.23;;;4.70;99.90;;;;;;6239635;23;20927;-78
2023/02/03 07:52:29;;;;;;;6.67;2.17;;;4.70;99.90;;;;;;6239296;23;20456;-79
2023/02/03 07:54:57;;;;;;;2.27;1.30;;;4.70;99.90;;;;;;6240230;23;20409;-79
2023/02/03 07:57:24;;;;;;;1.27;1.17;;;4.70;99.90;;;;;;6241312;23;20401;-78
2023/02/03 07:59:50;;;;;;;1.97;1.43;;;4.70;99.90;;;;;;6241941;23;20449;-78
2023/02/03 08:02:17;;;;;;;3.03;1.70;;;4.90;99.90;;;;;;6241993;23;20410;-78
2023/02/03 08:04:44;;;;;;;2.03;1.23;;;5.10;99.90;;;;;;6241904;23;20406;-81
2023/02/03 08:07:11;;;;;;;3.00;1.57;;;5.00;99.90;;;;;;6250593;23;20402;-83
2023/02/03 08:09:37;;;;;;;1.27;1.00;;;5.00;99.90;;;;;;6251194;23;20421;-80
2023/02/03 08:12:06;;;;;;;1.27;1.10;;;4.90;99.90;;;;;;6253363;23;20402;-79
2023/02/03 08:14:33;;;;;;;1.83;1.57;;;4.90;99.90;;;;;;6243460;23;20513;-81
2023/02/03 08:17:00;;;;;;;1.97;1.17;;;4.90;99.90;;;;;;6247796;23;20481;-78
2023/02/03 08:19:26;;;;;;;1.40;1.30;;;4.90;99.90;;;;;;6243699;23;20448;-79
2023/02/03 08:21:53;;;;;;;3.83;1.40;;;5.00;99.90;;;;;;6245316;23;20422;-80
2023/02/03 08:24:20;;;;;;;2.10;1.27;;;5.10;99.90;;;;;;6255007;23;20509;-81
2023/02/03 08:26:47;;;;;;;1.57;1.00;;;5.00;99.90;;;;;;6251745;23;20410;-79
2023/02/03 08:29:15;;;;;;;1.67;1.30;;;5.10;99.90;;;;;;6259038;23;20417;-81
2023/02/03 08:31:42;;;;;;;4.10;2.30;;;5.10;99.90;;;;;;6260424;23;20931;-82
2023/02/03 08:34:08;;;;;;;3.67;1.40;;;5.10;99.90;;;;;;6265525;22;20414;-83
2023/02/03 08:36:38;;;;;;;1.30;1.13;;;5.10;99.90;;;;;;6253270;23;20728;-81
2023/02/03 08:39:05;;;;;;;2.43;1.50;;;5.10;99.90;;;;;;6251560;23;20453;-82
2023/02/03 08:41:33;;;;;;;3.03;1.40;;;5.20;99.90;;;;;;6267315;22;20410;-82
2023/02/03 08:44:00;;;;;;;1.17;1.07;;;5.20;99.90;;;;;;6257773;23;20420;-86
2023/02/03 08:46:28;;;;;;;2.07;1.60;;;5.20;99.90;;;;;;6252711;23;20406;-84
2023/02/03 08:48:56;;;;;;;3.93;1.23;;;5.30;99.90;;;;;;6254695;23;20505;-80
2023/02/03 08:51:23;;;;;;;2.63;1.50;;;5.20;99.90;;;;;;6258219;23;20399;-81
2023/02/03 08:53:50;;;;;;;2.73;1.20;;;5.20;99.90;;;;;;6255862;23;20427;-83
2023/02/03 08:56:17;;;;;;;3.83;1.67;;;5.30;99.90;;;;;;6257318;23;20406;-81
2023/02/03 08:58:44;;;;;;;1.70;1.60;;;5.20;99.90;;;;;;6259136;23;20505;-85
2023/02/03 09:01:13;;;;;;;1.40;1.10;;;5.20;99.90;;;;;;6270280;22;20473;-83
2023/02/03 09:03:41;;;;;;;3.67;1.10;;;5.70;99.90;;;;;;6262014;22;20529;-85
2023/02/03 09:06:10;;;;;;;4.23;1.30;;;5.30;99.90;;;;;;6260946;23;20473;-86
2023/02/03 09:08:37;;;;;;;2.10;1.10;;;5.30;99.90;;;;;;6257538;23;20406;-88
2023/02/03 09:11:08;;;;;;;2.80;1.50;;;5.30;99.90;;;;;;6270470;22;20660;-80
2023/02/03 09:13:35;;;;;;;1.67;1.17;;;5.40;99.90;;;;;;6271295;22;20473;-85
2023/02/03 09:16:02;;;;;;;1.63;1.30;;;5.40;99.90;;;;;;6267778;23;20417;-83
2023/02/03 09:18:29;;;;;;;1.43;1.20;;;5.40;99.90;;;;;;6259257;23;20442;-88
2023/02/03 09:21:02;;;;;;;3.00;1.40;;;5.50;99.90;;;;;;6257386;23;20417;-82
2023/02/03 09:23:29;;;;;;;1.10;1.00;;;5.40;99.90;;;;;;6252668;23;20394;-82
2023/02/03 09:25:55;;;;;;;1.43;1.30;;;5.40;99.90;;;;;;6259975;23;20505;-84
2023/02/03 09:28:22;;;;;;;1.53;1.20;;;5.40;99.90;;;;;;6266256;23;20803;-85
2023/02/03 09:30:49;;;;;;;2.70;1.47;;;6.00;99.90;;;;;;6262481;23;20470;-87
2023/02/03 09:33:16;;;;;;;2.10;1.23;;;5.60;99.90;;;;;;6262615;23;20481;-89
2023/02/03 09:35:43;;;;;;;2.10;1.10;;;5.70;99.90;;;;;;6263391;23;20475;-83
2023/02/03 09:38:11;;;;;;;1.60;1.50;;;5.80;99.90;;;;;;6258952;23;20409;-82
2023/02/03 09:40:39;;;;;;;2.50;1.10;;;5.70;99.90;;;;;;6263882;23;20437;-83
2023/02/03 09:43:24;;;;;;;2.77;1.33;;;5.60;99.90;;;;;;6268325;23;20391;-87
2023/02/03 09:45:51;;;;;;;1.53;1.10;;;5.50;99.90;;;;;;6250579;23;20473;-79
2023/02/03 09:48:24;;;;;;;2.07;1.20;;;5.70;99.90;;;;;;6242058;23;20492;-82
2023/02/03 09:50:51;;;;;;;1.23;1.13;;;5.80;99.90;;;;;;6244397;23;20406;-82
2023/02/03 09:53:28;;;;;;;4.00;1.33;;;5.70;99.90;;;;;;6243029;23;20509;-81
2023/02/03 09:55:55;;;;;;;2.97;1.20;;;5.70;99.90;;;;;;6241442;23;20375;-82
2023/02/03 09:58:23;;;;;;;2.20;1.30;;;5.80;99.90;;;;;;6240310;23;20437;-81
2023/02/03 10:00:52;;;;;;;2.73;1.20;;;5.90;99.90;;;;;;6240395;23;20433;-81
2023/02/03 10:03:29;;;;;;;2.37;1.57;;;5.80;99.90;;;;;;6241495;23;20409;-82
2023/02/03 10:06:11;;;;;;;2.50;1.30;;;6.00;99.90;;;;;;6242333;23;20386;-82
2023/02/03 10:09:01;;;;;;;1.43;1.13;;;6.00;99.90;;;;;;6242358;23;20403;-81
2023/02/03 10:11:45;;;;;;;1.33;1.20;;;6.00;99.90;;;;;;6246032;23;20395;-78
2023/02/03 10:14:25;;;;;;;3.03;1.27;;;6.00;99.90;;;;;;6239877;23;20398;-79
2023/02/03 10:17:05;;;;;;;1.60;1.10;;;5.90;99.90;;;;;;6239966;23;20867;-78
2023/02/03 10:19:38;;;;;;;2.17;1.20;;;6.10;99.90;;;;;;6238403;23;20440;-79
2023/02/03 10:22:08;;;;;;;2.63;1.40;;;5.90;99.90;;;;;;6239895;23;20875;-78
2023/02/03 10:24:41;;;;;;;1.60;1.30;;;6.00;99.90;;;;;;6238876;23;20436;-80
2023/02/03 10:27:16;;;;;;;2.50;1.50;;;6.00;99.90;;;;;;6239440;23;20389;-82
2023/02/03 10:29:43;;;;;;;1.40;1.30;;;5.90;99.90;;;;;;6238618;23;20452;-78
2023/02/03 10:32:13;;;;;;;2.50;1.20;;;6.00;99.90;;;;;;6239756;23;20417;-82
2023/02/03 10:34:46;;;;;;;2.17;1.17;;;6.00;99.90;;;;;;6239792;23;20413;-78
2023/02/03 10:37:22;;;;;;;3.10;1.57;;;6.10;99.90;;;;;;6239189;23;20399;-84
2023/02/03 10:39:52;;;;;;;1.73;1.50;;;6.00;99.90;;;;;;6241104;23;20426;-83
2023/02/03 10:42:21;;;;;;;3.07;1.40;;;6.00;99.90;;;;;;6247314;23;20485;-78
2023/02/03 10:44:53;;;;;;;1.37;1.20;;;6.10;99.90;;;;;;6240060;23;20473;-81
2023/02/03 10:47:33;;;;;;;1.30;1.20;;;6.00;99.90;;;;;;6241297;23;20390;-81
2023/02/03 10:50:04;;;;;;;1.90;1.23;;;6.10;99.90;;;;;;6240750;23;20915;-83
2023/02/03 10:52:33;;;;;;;4.80;1.50;;;6.20;99.90;;;;;;6240887;23;20449;-81
2023/02/03 10:55:05;;;;;;;3.40;1.77;;;6.10;99.90;;;;;;6243456;23;20423;-79
2023/02/03 10:57:35;;;;;;;3.63;1.20;;;6.00;99.90;;;;;;6241510;23;20831;-79
2023/02/03 11:00:19;;;;;;;2.13;1.40;;;6.00;99.90;;;;;;6240581;23;20434;-81
2023/02/03 11:02:54;;;;;;;5.23;1.53;;;6.10;99.90;;;;;;6246416;22;20423;-74
2023/02/03 11:05:23;;;;;;;8.50;2.13;;;6.20;99.90;;;;;;6256580;23;20517;-89
2023/02/03 11:07:52;;;;;;;1.47;1.37;;;6.10;99.90;;;;;;6262727;23;20441;-88
2023/02/03 11:10:34;;;;;;;2.60;1.47;;;6.20;99.90;;;;;;6264176;23;20490;-83
2023/02/03 11:13:20;;;;;;;1.53;1.43;;;6.10;99.90;;;;;;6252149;23;20399;-88
2023/02/03 11:15:56;;;;;;;1.77;1.50;;;6.20;99.90;;;;;;6252990;23;20422;-88
2023/02/03 11:18:33;;;;;;;5.47;1.40;;;6.30;99.90;;;;;;6259777;23;20413;-87
2023/02/03 11:21:01;;;;;;;2.90;1.40;;;6.30;99.90;;;;;;6262524;23;20513;-84
2023/02/03 11:23:27;;;;;;;2.50;1.30;;;6.30;99.90;;;;;;6251490;23;20492;-84
2023/02/03 11:25:56;;;;;;;2.43;1.43;;;6.40;99.90;;;;;;6259108;23;20521;-86
2023/02/03 11:28:27;;;;;;;2.07;1.70;;;6.40;99.90;;;;;;6262563;23;20504;-84
2023/02/03 11:30:56;;;;;;;1.37;1.27;;;6.50;99.90;;;;;;6262319;23;20701;-85
2023/02/03 11:33:27;;;;;;;3.43;1.70;;;6.40;99.90;;;;;;6263948;23;20408;-89
2023/02/03 11:35:57;;;;;;;2.80;1.43;;;6.50;99.90;;;;;;6269870;22;20421;-83
2023/02/03 11:38:35;;;;;;;2.07;1.10;;;6.60;99.90;;;;;;6267711;23;20454;-85
2023/02/03 11:41:03;;;;;;;2.27;1.43;;;6.70;99.90;;;;;;6267446;23;20430;-83
2023/02/03 11:43:30;;;;;;;1.00;0.90;;;6.60;99.90;;;;;;6267671;23;20434;-86
2023/02/03 11:46:01;;;;;;;1.80;1.50;;;6.60;99.90;;;;;;6265796;23;20414;-83
2023/02/03 11:48:32;;;;;;;3.57;1.60;;;6.60;99.90;;;;;;6254920;23;20374;-79
2023/02/03 11:51:06;;;;;;;1.90;1.80;;;6.70;99.90;;;;;;6249239;23;20398;-82
2023/02/03 11:56:20;;;;;;;2.23;1.33;;;6.80;99.90;;;;;;6227184;23;20917;-90
2023/02/03 11:59:10;;;;;;;1.40;1.30;;;7.00;99.90;;;;;;6215334;23;20647;-87
2023/02/03 12:02:05;;;;;;;1.80;1.10;;;6.90;99.90;;;;;;6236975;23;20471;-85
2023/02/03 12:04:48;;;;;;;1.60;1.27;;;7.00;99.90;;;;;;6222395;23;20395;-88
2023/02/03 12:07:41;;;;;;;1.90;1.13;;;7.00;99.90;;;;;;6220983;23;20395;-83
2023/02/03 12:10:24;;;;;;;1.40;1.10;;;6.90;99.90;;;;;;6237881;22;20414;-88
2023/02/03 12:13:01;;;;;;;1.80;1.30;;;6.80;99.90;;;;;;6224694;23;20698;-79
2023/02/03 12:15:48;;;;;;;1.57;1.47;;;6.80;99.90;;;;;;6214269;23;20907;-78
2023/02/03 12:18:33;;;;;;;1.73;1.33;;;6.70;99.90;;;;;;6215223;23;20391;-80
2023/02/03 12:21:09;;;;;;;1.20;1.10;;;6.70;99.90;;;;;;6213656;23;20474;-78
2023/02/03 12:23:44;;;;;;;1.30;1.00;;;6.60;99.90;;;;;;6211074;23;20395;-78
2023/02/03 12:26:20;;;;;;;1.10;0.97;;;6.60;99.90;;;;;;6209358;23;20427;-81
2023/02/03 12:28:59;;;;;;;5.60;1.47;;;6.70;99.90;;;;;;6209983;23;20591;-79
2023/02/03 12:31:32;;;;;;;1.20;1.10;;;6.70;99.90;;;;;;6210687;23;20388;-79
2023/02/03 12:34:07;;;;;;;1.30;1.20;;;6.60;99.90;;;;;;6210110;23;20399;-78
2023/02/03 12:36:40;;;;;;;1.73;1.07;;;6.50;99.90;;;;;;6215357;23;20474;-83
2023/02/03 12:39:13;;;;;;;3.40;1.30;;;6.60;99.90;;;;;;6218274;23;20485;-80
2023/02/03 12:41:46;;;;;;;1.30;1.20;;;6.60;99.90;;;;;;6217400;23;20396;-80
2023/02/03 12:44:20;;;;;;;1.20;1.10;;;6.50;99.90;;;;;;6228544;23;20459;-80
2023/02/03 12:47:01;;;;;;;1.97;1.77;;;6.50;99.90;;;;;;6241246;22;20955;-83
2023/02/03 12:49:36;;;;;;;2.40;1.20;;;6.90;99.90;;;;;;6254613;23;20422;-85
2023/02/03 12:52:06;;;;;;;1.40;1.10;;;6.50;99.90;;;;;;6252306;23;20434;-82
2023/02/03 12:54:40;;;;;;;1.00;0.90;;;6.70;99.90;;;;;;6257837;23;20742;-81
2023/02/03 12:57:16;;;;;;;2.57;1.40;;;6.50;99.90;;;;;;6242719;23;20395;-78
2023/02/03 12:59:58;;;;;;;1.57;1.30;;;6.60;99.90;;;;;;6241275;23;20426;-81
2023/02/03 13:02:31;;;;;;;1.50;1.10;;;6.60;99.90;;;;;;6244614;23;20607;-79
2023/02/03 13:05:05;;;;;;;0.80;0.70;;;6.60;99.90;;;;;;6225456;23;20472;-80
2023/02/03 13:07:39;;;;;;;2.13;1.30;;;6.60;99.90;;;;;;6249430;23;20815;-86
2023/02/03 13:10:16;;;;;;;1.27;1.00;;;6.60;99.90;;;;;;6250113;23;20410;-80
2023/02/03 13:12:47;;;;;;;1.47;1.30;;;6.50;99.90;;;;;;6249362;23;20413;-80
2023/02/03 13:15:24;;;;;;;1.10;1.00;;;6.40;99.90;;;;;;6249196;23;20404;-82
2023/02/03 13:17:57;;;;;;;1.40;1.10;;;6.40;99.90;;;;;;6259538;23;20406;-81
2023/02/03 13:20:27;;;;;;;1.80;1.37;;;6.40;99.90;;;;;;6255868;23;20442;-81
2023/02/03 13:22:54;;;;;;;1.77;1.20;;;6.30;99.90;;;;;;6248550;23;20444;-80
2023/02/03 13:25:25;;;;;;;1.20;1.00;;;6.30;99.90;;;;;;6241572;23;20425;-82
2023/02/03 13:28:05;;;;;;;1.73;1.60;;;6.40;99.90;;;;;;6243717;23;20891;-84
2023/02/03 13:30:51;;;;;;;1.10;1.00;;;6.30;99.90;;;;;;6251953;23;20815;-81